Time;durP1;ratioP1;P1;durP2;ratioP2;P2;SDS_P1;SDS_P2;PMS_P1;PMS_P2;Temp;Humidity;BMP_temperature;BMP_pressure;BME280_temperature;BME280_humidity;BME280_pressure;Samples;Min_cycle;Max_cycle;Signal;HPM_P1;HPM_P2
2023/10/03 00:03:33;;;;;;;0.98;0.80;;;;;;;16.93;67.95;101140.59;15476951;28;20056;-47
2023/10/03 00:11:08;;;;;;;0.00;0.00;;;;;;;16.79;68.36;101135.44;15505657;28;20034;-50
2023/10/03 00:18:43;;;;;;;0.22;0.22;;;;;;;16.63;68.94;101111.78;15538975;28;20041;-49
2023/10/03 00:26:17;;;;;;;1.92;0.65;;;;;;;16.57;69.05;101116.28;15554996;28;20041;-51
2023/10/03 00:33:54;;;;;;;0.50;0.50;;;;;;;16.58;68.50;101101.66;15553297;28;20070;-51
2023/10/03 00:41:29;;;;;;;0.13;0.13;;;;;;;16.79;68.38;101089.38;15535651;28;20096;-49
2023/10/03 00:49:08;;;;;;;0.20;0.20;;;;;;;16.96;67.51;101066.88;15553483;28;20038;-47
2023/10/03 00:56:45;;;;;;;0.20;0.20;;;;;;;16.87;67.50;101046.63;15546217;28;20086;-48
2023/10/03 01:04:19;;;;;;;2.03;1.15;;;;;;;16.92;67.13;101039.41;15481143;28;20409;-47
2023/10/03 01:11:53;;;;;;;9.23;0.98;;;;;;;16.87;67.14;101041.22;15553888;28;20069;-51
2023/10/03 01:19:30;;;;;;;1.25;1.15;;;;;;;16.81;67.43;101024.03;15552117;28;20058;-48
2023/10/03 01:27:05;;;;;;;0.00;0.00;;;;;;;16.92;66.59;101001.44;15549950;28;20442;-54
2023/10/03 01:34:39;;;;;;;1.67;1.17;;;;;;;17.01;65.50;100999.97;15545429;28;20484;-50
2023/10/03 01:42:18;;;;;;;1.33;0.75;;;;;;;16.91;65.41;100999.00;15545314;28;20034;-47
2023/10/03 01:49:53;;;;;;;0.40;0.40;;;;;;;16.53;66.29;101000.47;15545299;28;20410;-52
2023/10/03 01:57:29;;;;;;;0.00;0.00;;;;;;;16.39;66.49;100991.81;15542132;28;20037;-48
2023/10/03 02:05:02;;;;;;;2.50;1.83;;;;;;;16.11;67.42;100979.09;15544015;28;20034;-50
2023/10/03 02:12:37;;;;;;;1.38;0.80;;;;;;;15.96;67.40;100970.69;15561135;28;20048;-46
2023/10/03 02:20:16;;;;;;;0.40;0.40;;;;;;;15.71;67.46;100950.13;15544278;28;20038;-45
2023/10/03 02:27:51;;;;;;;0.05;0.05;;;;;;;15.68;68.13;100941.69;15534389;28;20548;-47
2023/10/03 02:35:25;;;;;;;1.40;0.60;;;;;;;15.72;67.64;100921.22;15541399;28;20120;-50
2023/10/03 02:43:00;;;;;;;0.25;0.25;;;;;;;15.96;66.46;100898.41;15542018;28;20084;-50
2023/10/03 02:50:35;;;;;;;1.13;0.47;;;;;;;15.86;66.35;100883.88;15541523;28;20096;-51
2023/10/03 02:58:10;;;;;;;0.15;0.15;;;;;;;16.00;66.27;100871.69;15521765;28;20058;-48
2023/10/03 03:05:48;;;;;;;2.15;1.20;;;;;;;15.62;67.66;100864.97;15539995;28;20053;-46
2023/10/03 03:13:24;;;;;;;0.30;0.30;;;;;;;15.73;67.46;100853.31;15540302;28;20517;-45
2023/10/03 03:21:01;;;;;;;0.10;0.10;;;;;;;16.00;66.72;100831.06;15539594;28;20037;-48
2023/10/03 03:28:35;;;;;;;1.27;0.80;;;;;;;15.60;68.22;100821.09;15557293;28;20045;-47
2023/10/03 03:36:08;;;;;;;0.40;0.40;;;;;;;15.86;67.86;100808.88;15555839;28;20514;-48
2023/10/03 03:43:44;;;;;;;0.38;0.38;;;;;;;15.49;68.92;100795.72;15555678;28;20077;-46
2023/10/03 03:51:19;;;;;;;0.20;0.20;;;;;;;15.47;69.26;100775.38;15554186;28;20042;-48
2023/10/03 03:58:54;;;;;;;1.95;0.57;;;;;;;15.80;67.66;100778.19;15552523;28;20042;-47
2023/10/03 04:06:27;;;;;;;1.58;1.00;;;;;;;15.75;67.92;100769.16;15554497;28;20137;-49
2023/10/03 04:14:04;;;;;;;4.07;0.68;;;;;;;15.93;67.12;100766.22;15536598;28;20041;-51
2023/10/03 04:21:40;;;;;;;0.93;0.80;;;;;;;15.69;67.97;100753.91;15553278;28;20048;-50
2023/10/03 04:29:15;;;;;;;0.20;0.20;;;;;;;15.44;69.20;100748.84;15554129;28;20077;-46
2023/10/03 04:36:48;;;;;;;2.28;1.70;;;;;;;15.24;69.85;100735.72;15553680;28;20041;-46
2023/10/03 04:44:23;;;;;;;0.93;0.93;;;;;;;15.52;69.25;100724.88;15553485;28;20050;-45
2023/10/03 04:52:15;;;;;;;0.35;0.35;;;;;;;15.70;68.97;100707.66;15552946;28;20137;-48
2023/10/03 04:59:50;;;;;;;1.45;0.68;;;;;;;15.89;67.76;100694.69;15554258;28;20295;-47
2023/10/03 05:07:24;;;;;;;1.90;1.20;;;;;;;15.94;67.71;100677.72;15564340;28;20046;-46
2023/10/03 05:15:01;;;;;;;0.47;0.47;;;;;;;15.96;67.09;100665.59;15563995;28;20447;-51
2023/10/03 05:22:35;;;;;;;0.22;0.20;;;;;;;16.15;66.71;100658.00;15564539;28;20093;-48
2023/10/03 05:30:11;;;;;;;0.30;0.28;;;;;;;16.19;66.46;100644.78;15562687;28;20281;-49
2023/10/03 05:37:45;;;;;;;1.30;0.75;;;;;;;15.92;67.82;100631.94;15534639;28;20049;-48
2023/10/03 05:45:20;;;;;;;2.00;1.65;;;;;;;15.86;67.79;100619.41;15544926;28;20124;-47
2023/10/03 05:52:53;;;;;;;0.45;0.28;;;;;;;16.42;66.15;100613.94;15545430;28;20462;-45
2023/10/03 06:00:28;;;;;;;0.32;0.32;;;;;;;16.44;66.49;100623.44;15559175;28;20144;-47
2023/10/03 06:08:01;;;;;;;0.60;0.60;;;;;;;16.58;66.17;100613.03;15560957;28;20053;-47
2023/10/03 06:15:37;;;;;;;0.73;0.73;;;;;;;16.85;65.40;100587.91;15525385;28;20073;-47
2023/10/03 06:23:10;;;;;;;0.30;0.20;;;;;;;16.90;65.24;100577.94;15560709;28;20041;-46
2023/10/03 06:30:45;;;;;;;2.08;1.85;;;;;;;16.99;65.45;100591.84;15558338;28;20046;-49
2023/10/03 06:38:19;;;;;;;7.80;0.55;;;;;;;17.27;64.67;100599.69;15558250;28;20042;-50
2023/10/03 06:45:53;;;;;;;0.65;0.35;;;;;;;17.46;64.55;100585.75;15559026;28;20422;-50
2023/10/03 06:53:26;;;;;;;0.57;0.57;;;;;;;17.95;62.28;100577.41;15541328;28;20093;-50
2023/10/03 07:01:01;;;;;;;0.77;0.77;;;;;;;18.25;61.49;100552.31;15499163;28;20052;-49
2023/10/03 07:08:34;;;;;;;2.10;1.17;;;;;;;18.42;61.03;100535.75;15551690;28;20054;-47
2023/10/03 07:16:09;;;;;;;4.60;1.25;;;;;;;18.59;60.57;100558.94;15538987;28;20046;-49
2023/10/03 07:23:43;;;;;;;1.58;1.40;;;;;;;19.04;59.45;100559.31;15542053;28;20129;-49
2023/10/03 07:31:18;;;;;;;0.30;0.30;;;;;;;19.40;58.25;100532.94;15552043;28;20049;-48
2023/10/03 07:38:51;;;;;;;1.00;0.90;;;;;;;19.26;58.75;100540.81;15553402;28;20041;-49
2023/10/03 07:46:26;;;;;;;0.95;0.95;;;;;;;20.00;56.98;100552.13;15528868;28;20049;-47
2023/10/03 07:53:59;;;;;;;1.88;0.75;;;;;;;20.30;56.26;100543.03;15553903;28;20049;-49
2023/10/03 08:01:38;;;;;;;3.25;1.00;;;;;;;21.09;54.81;100530.31;15551168;28;20463;-48
2023/10/03 08:09:13;;;;;;;0.57;0.57;;;;;;;21.00;54.72;100535.56;15521233;28;20137;-52
2023/10/03 08:16:48;;;;;;;1.45;1.35;;;;;;;21.30;53.37;100529.00;15522650;28;20126;-48
2023/10/03 08:24:24;;;;;;;2.38;1.05;;;;;;;21.72;52.17;100502.13;15543281;28;20042;-51
2023/10/03 08:31:59;;;;;;;1.05;0.98;;;;;;;21.84;52.80;100511.56;15540870;28;20077;-53
2023/10/03 08:39:33;;;;;;;0.30;0.30;;;;;;;21.40;53.16;100500.81;15552931;28;20038;-51
2023/10/03 08:47:12;;;;;;;1.17;1.08;;;;;;;21.58;53.61;100488.34;15555901;28;20590;-49
2023/10/03 08:54:45;;;;;;;4.57;0.98;;;;;;;21.49;53.96;100479.16;15550989;28;20448;-53
2023/10/03 09:02:24;;;;;;;2.47;0.50;;;;;;;21.50;54.29;100478.09;15534005;28;20046;-53
2023/10/03 09:10:08;;;;;;;0.60;0.32;;;;;;;21.85;53.89;100468.66;15553281;28;20042;-48
2023/10/03 09:17:42;;;;;;;0.10;0.10;;;;;;;22.01;53.06;100488.41;15552476;28;20085;-48
2023/10/03 09:25:19;;;;;;;5.97;3.10;;;;;;;22.53;52.27;100472.97;15552600;28;20041;-50
2023/10/03 09:32:55;;;;;;;3.47;1.45;;;;;;;23.02;51.49;100461.50;15552302;28;20041;-47
2023/10/03 09:40:28;;;;;;;1.85;1.55;;;;;;;23.54;49.60;100462.19;15551616;28;20521;-46
2023/10/03 09:48:06;;;;;;;2.25;1.70;;;;;;;23.83;49.02;100467.44;15557501;28;20038;-47
2023/10/03 09:55:46;;;;;;;3.00;1.63;;;;;;;24.47;48.11;100453.69;15545362;28;20402;-47
2023/10/03 10:03:27;;;;;;;0.65;0.65;;;;;;;24.43;47.07;100466.41;15544040;28;20523;-46
2023/10/03 10:11:07;;;;;;;3.80;1.23;;;;;;;24.41;47.63;100455.75;15562422;28;20066;-46
2023/10/03 10:19:04;;;;;;;1.83;1.60;;;;;;;24.71;45.81;100474.53;15551700;28;20040;-48
2023/10/03 10:26:39;;;;;;;5.57;2.35;;;;;;;25.03;45.27;100437.78;15528749;28;20124;-44
2023/10/03 10:34:35;;;;;;;1.67;0.98;;;;;;;25.02;45.00;100456.19;15559497;28;20050;-45
2023/10/03 10:42:09;;;;;;;2.85;1.08;;;;;;;24.76;44.98;100449.72;15531405;28;20100;-47
2023/10/03 10:50:00;;;;;;;1.10;0.85;;;;;;;24.73;45.94;100444.88;15558434;28;20046;-52
2023/10/03 10:57:33;;;;;;;1.45;1.00;;;;;;;24.18;45.27;100473.25;15528419;28;20492;-52
2023/10/03 11:05:10;;;;;;;7.47;1.55;;;;;;;24.53;46.28;100462.63;15542058;28;20478;-45
2023/10/03 11:12:44;;;;;;;4.07;1.42;;;;;;;24.19;46.17;100466.66;15558135;28;20148;-51
2023/10/03 11:20:19;;;;;;;0.50;0.40;;;;;;;24.55;45.48;100455.72;15539803;28;20076;-46
2023/10/03 11:27:54;;;;;;;0.38;0.38;;;;;;;24.41;46.03;100487.88;15555754;28;20096;-48
2023/10/03 11:35:28;;;;;;;0.90;0.52;;;;;;;23.95;47.34;100499.78;15554976;28;20057;-46
2023/10/03 11:43:03;;;;;;;3.13;0.90;;;;;;;24.02;47.74;100496.66;15538708;28;20042;-47
2023/10/03 11:50:39;;;;;;;0.68;0.60;;;;;;;23.96;47.15;100501.41;15538733;28;20042;-46
2023/10/03 11:58:12;;;;;;;0.45;0.35;;;;;;;23.83;48.00;100488.56;15530012;28;20286;-45
2023/10/03 12:05:49;;;;;;;2.42;1.08;;;;;;;23.40;48.38;100497.78;15537884;28;20415;-50
2023/10/03 12:13:25;;;;;;;0.98;0.73;;;;;;;23.22;49.39;100498.66;15554328;28;20479;-48
2023/10/03 12:20:59;;;;;;;1.92;1.08;;;;;;;23.75;48.68;100520.22;15553860;28;20097;-47
2023/10/03 12:28:33;;;;;;;0.70;0.57;;;;;;;23.93;48.29;100516.56;15553608;28;20068;-45
2023/10/03 12:36:11;;;;;;;0.75;0.45;;;;;;;23.68;48.76;100517.84;15534047;28;20092;-54
2023/10/03 12:43:48;;;;;;;17.40;2.55;;;;;;;23.52;49.22;100513.75;15553696;28;20496;-46
2023/10/03 12:51:22;;;;;;;3.58;1.23;;;;;;;23.30;50.54;100502.66;15552480;28;20129;-45
2023/10/03 12:58:58;;;;;;;0.47;0.47;;;;;;;22.84;50.75;100497.91;15549890;28;20495;-42
2023/10/03 13:06:32;;;;;;;0.40;0.40;;;;;;;23.08;50.33;100492.34;15553102;28;20046;-44
2023/10/03 13:14:05;;;;;;;0.75;0.57;;;;;;;23.23;50.42;100500.31;15552669;28;20410;-46
2023/10/03 13:21:42;;;;;;;0.88;0.63;;;;;;;23.04;51.02;100496.81;15555469;28;20467;-44
2023/10/03 13:29:15;;;;;;;2.58;1.13;;;;;;;23.19;51.26;100485.59;15528420;28;20049;-45
2023/10/03 13:36:50;;;;;;;3.55;1.13;;;;;;;23.32;50.73;100492.22;15539131;28;20128;-47
2023/10/03 13:44:23;;;;;;;0.28;0.28;;;;;;;22.97;51.53;100515.53;15545462;28;20050;-45
2023/10/03 13:51:57;;;;;;;0.68;0.60;;;;;;;22.71;51.89;100512.34;15546282;28;20058;-44
2023/10/03 13:59:30;;;;;;;0.47;0.30;;;;;;;22.73;51.69;100518.34;15541820;28;20137;-41
2023/10/03 14:07:05;;;;;;;2.00;1.05;;;;;;;22.56;52.10;100511.47;15561647;28;20041;-43
2023/10/03 14:14:39;;;;;;;0.40;0.40;;;;;;;22.46;51.62;100510.81;15528106;28;20388;-45
2023/10/03 14:22:14;;;;;;;0.00;0.00;;;;;;;22.46;51.22;100514.34;15560826;28;20050;-44
2023/10/03 14:29:47;;;;;;;3.25;0.55;;;;;;;22.40;53.15;100504.59;15559807;28;20295;-45
2023/10/03 14:37:22;;;;;;;0.38;0.35;;;;;;;22.23;56.29;100510.56;15537327;28;20038;-47
2023/10/03 14:44:55;;;;;;;2.08;1.02;;;;;;;22.04;53.26;100507.75;15559006;28;20501;-51
2023/10/03 14:52:29;;;;;;;0.30;0.30;;;;;;;22.01;52.78;100510.25;15541350;28;20058;-44
2023/10/03 15:00:05;;;;;;;0.00;0.00;;;;;;;22.40;52.13;100516.34;15535587;28;20037;-42
2023/10/03 15:07:40;;;;;;;0.22;0.22;;;;;;;22.42;51.75;100511.38;15556565;28;20551;-47
2023/10/03 15:15:14;;;;;;;0.55;0.55;;;;;;;22.22;52.36;100511.69;15556599;28;20716;-48
2023/10/03 15:22:51;;;;;;;0.20;0.20;;;;;;;22.41;51.46;100493.34;15540389;28;20538;-47
2023/10/03 15:30:27;;;;;;;0.03;0.03;;;;;;;22.26;51.41;100496.31;15557342;28;20066;-47
2023/10/03 15:38:06;;;;;;;0.10;0.10;;;;;;;22.12;52.25;100495.41;15539187;28;20046;-42
2023/10/03 15:45:42;;;;;;;0.17;0.17;;;;;;;22.06;51.97;100493.81;15554917;28;20522;-48
2023/10/03 15:53:19;;;;;;;0.95;0.70;;;;;;;21.17;58.91;100592.47;15555186;28;20108;-46
2023/10/03 16:00:53;;;;;;;0.00;0.00;;;;;;;15.79;75.94;100662.06;15524884;28;20044;-49
2023/10/03 16:08:29;;;;;;;1.55;1.00;;;;;;;15.74;77.61;100646.56;15554119;28;20049;-51
2023/10/03 16:16:04;;;;;;;0.35;0.20;;;;;;;15.86;78.55;100641.06;15554285;28;20046;-52
2023/10/03 16:23:39;;;;;;;2.30;0.57;;;;;;;15.87;80.27;100672.47;15553406;28;20514;-48
2023/10/03 16:31:14;;;;;;;0.00;0.00;;;;;;;15.77;82.43;100700.19;15536808;28;20030;-47
2023/10/03 16:38:53;;;;;;;0.00;0.00;;;;;;;15.83;84.06;100760.66;15516919;28;20089;-53
2023/10/03 16:46:27;;;;;;;0.20;0.20;;;;;;;16.86;81.07;100746.78;15553278;28;20053;-50
2023/10/03 16:54:04;;;;;;;1.17;0.85;;;;;;;16.73;82.38;100746.06;15536414;28;20057;-51
2023/10/03 17:01:37;;;;;;;0.28;0.28;;;;;;;17.15;80.21;100745.50;15561983;28;20431;-52
2023/10/03 17:09:13;;;;;;;0.15;0.15;;;;;;;17.02;81.18;100754.84;15563897;28;20038;-47
2023/10/03 17:16:46;;;;;;;0.00;0.00;;;;;;;17.12;81.15;100778.56;15564185;28;20073;-49
2023/10/03 17:24:21;;;;;;;0.17;0.17;;;;;;;16.91;81.14;100798.34;15563964;28;20061;-51
2023/10/03 17:31:59;;;;;;;0.10;0.10;;;;;;;16.54;83.15;100798.88;15547097;28;20038;-48
2023/10/03 17:39:33;;;;;;;0.10;0.10;;;;;;;16.43;82.10;100827.72;15544994;28;20140;-48
2023/10/03 17:47:07;;;;;;;0.00;0.00;;;;;;;16.51;81.45;100850.88;15563426;28;20050;-49
2023/10/03 17:54:42;;;;;;;0.00;0.00;;;;;;;16.40;82.41;100876.16;15562673;28;20045;-49
2023/10/03 18:02:15;;;;;;;0.00;0.00;;;;;;;16.17;80.45;100896.88;15561068;28;20042;-52
2023/10/03 18:09:49;;;;;;;0.00;0.00;;;;;;;16.07;79.38;100921.06;15553879;28;20511;-53
2023/10/03 18:17:22;;;;;;;0.03;0.03;;;;;;;15.78;80.60;100942.72;15561196;28;20125;-53
2023/10/03 18:24:58;;;;;;;2.30;1.02;;;;;;;16.19;78.45;100978.72;15574219;22;20053;-55
2023/10/03 18:32:31;;;;;;;1.88;1.25;;;;;;;15.99;79.55;100981.88;15613230;28;20409;-54
2023/10/03 18:40:08;;;;;;;0.00;0.00;;;;;;;15.89;79.99;100969.97;15616621;28;20037;-52
2023/10/03 18:47:41;;;;;;;0.00;0.00;;;;;;;15.12;81.82;101019.66;15616939;28;20042;-51
2023/10/03 18:55:17;;;;;;;0.17;0.17;;;;;;;15.16;80.35;101053.28;15615032;28;20080;-50
2023/10/03 19:02:50;;;;;;;0.00;0.00;;;;;;;15.10;80.43;101078.53;15610393;28;20509;-55
2023/10/03 19:10:25;;;;;;;;;;;;;;;14.87;80.00;101100.91;15615811;28;20481;-50
2023/10/03 19:17:58;;;;;;;;;;;;;;;14.98;78.13;101137.19;15597215;28;19999;-49
2023/10/03 19:25:32;;;;;;;;;;;;;;;14.78;79.12;101142.81;15595450;28;19920;-55
2023/10/03 19:33:06;;;;;;;;;;;;;;;14.46;78.02;101172.72;15613997;28;19928;-54
2023/10/03 19:40:41;;;;;;;;;;;;;;;14.14;78.55;101200.91;15613050;28;19959;-56
2023/10/03 19:48:14;;;;;;;;;;;;;;;14.17;78.68;101213.94;15611352;28;19925;-55
2023/10/03 19:55:49;;;;;;;;;;;;;;;13.79;78.76;101233.78;15613296;28;19920;-54
2023/10/03 20:03:22;;;;;;;;;;;;;;;14.04;77.16;101250.81;15612916;28;19960;-49
2023/10/03 20:10:56;;;;;;;;;;;;;;;13.88;77.68;101266.72;15594385;28;19921;-52
2023/10/03 20:18:29;;;;;;;;;;;;;;;13.98;77.35;101286.75;15611738;28;19929;-50
2023/10/03 20:26:04;;;;;;;;;;;;;;;13.71;78.26;101315.81;15611488;28;19928;-51
2023/10/03 20:33:40;;;;;;;;;;;;;;;13.66;78.66;101323.75;15610786;28;19928;-51
2023/10/03 20:41:14;;;;;;;;;;;;;;;13.86;77.74;101344.38;15608685;28;19943;-55
2023/10/03 20:48:47;;;;;;;;;;;;;;;13.57;78.50;101359.25;15610717;28;19975;-53
2023/10/03 20:56:21;;;;;;;;;;;;;;;13.86;77.04;101380.28;15611299;28;19924;-55
2023/10/03 21:03:54;;;;;;;;;;;;;;;13.61;76.83;101404.47;15592661;28;20007;-54
2023/10/03 21:11:29;;;;;;;;;;;;;;;13.75;76.70;101426.81;15610388;28;19925;-53
2023/10/03 21:19:02;;;;;;;;;;;;;;;13.67;76.58;101438.69;15609627;28;19944;-57
2023/10/03 21:26:36;;;;;;;;;;;;;;;13.31;77.45;101457.25;15609875;28;20016;-55
2023/10/03 21:34:09;;;;;;;;;;;;;;;13.33;77.69;101474.88;15610297;28;20274;-51
2023/10/03 21:41:43;;;;;;;;;;;;;;;13.25;77.88;101480.50;15610159;28;19972;-56
2023/10/03 21:49:17;;;;;;;;;;;;;;;13.24;78.26;101481.53;15601679;28;19920;-55
2023/10/03 21:56:51;;;;;;;;;;;;;;;12.88;79.64;101504.34;15600942;28;19921;-57
2023/10/03 22:04:25;;;;;;;;;;;;;;;12.96;79.12;101514.06;15617948;28;20367;-51
2023/10/03 22:12:02;;;;;;;;;;;;;;;12.97;79.32;101510.34;15617747;28;20262;-50
2023/10/03 22:19:35;;;;;;;;;;;;;;;13.07;79.24;101524.22;15616592;28;20239;-52
2023/10/03 22:27:13;;;;;;;;;;;;;;;12.97;80.70;101548.91;15616816;28;19972;-54
2023/10/03 22:34:46;;;;;;;;;;;;;;;12.89;79.38;101545.56;15617127;28;19983;-56
2023/10/03 22:42:21;;;;;;;;;;;;;;;12.98;78.75;101555.13;15615945;28;19962;-57
2023/10/03 22:49:54;;;;;;;;;;;;;;;13.07;78.69;101569.22;15612155;28;20386;-55
2023/10/03 22:57:28;;;;;;;;;;;;;;;13.25;77.62;101591.03;15614312;28;19921;-55
2023/10/03 23:05:01;;;;;;;;;;;;;;;13.22;78.18;101602.22;15597600;28;20309;-51
2023/10/03 23:12:36;;;;;;;;;;;;;;;13.11;77.73;101600.13;15614512;28;20350;-54
2023/10/03 23:20:11;;;;;;;;;;;;;;;13.42;76.43;101627.31;15614110;28;19921;-57
2023/10/03 23:27:47;;;;;;;;;;;;;;;13.08;77.21;101616.69;15613353;28;19932;-50
2023/10/03 23:35:21;;;;;;;;;;;;;;;12.88;77.77;101628.28;15613288;28;19956;-54
2023/10/03 23:42:56;;;;;;;;;;;;;;;12.89;77.04;101650.66;15595708;28;19928;-57
2023/10/03 23:50:31;;;;;;;;;;;;;;;12.94;76.36;101649.00;15613261;28;20059;-55
2023/10/03 23:58:09;;;;;;;;;;;;;;;12.82;76.76;101652.50;15611813;28;19925;-51
